Minot, ND (58701)

11:32 AM CDT on March 25, 2017 (GMT -0500)
Edgeview Estates | | Change Station
Active Advisory: Flood Warning

Elev 1752 ft 48.21 °N, 101.33 °W | Updated 4 seconds ago

Overcast
Overcast
36.0 °F
Feels Like 27 °F
N
14.0
Wind Variable Wind from SE
Gusts 25.0 mph

Today
High -- | Low -- °F
--% Chance of Precip.
Yesterday
High -- | Low -- °F
Precip. -- in
Pressure 29.98 in
Visibility 10.0 miles
Clouds Overcast 10000 ft
Windchill 27 °F
Dew Point 31 °F
Humidity 81%
Rainfall 0.00 in
Snow Depth Not available.
7:37 AM 8:05 PM
Waning Crescent, 7% visible
METAR KMOT 251554Z 14012KT 10SM OVC100 02/M01 A2992 RMK AO2 SLP151 T00221006
Pressure 29.98 in
Visibility 10.0 miles
Clouds Overcast 10000 ft
Windchill 27 °F
Dew Point 31 °F
Humidity 81%
Rainfall 0.00 in
Snow Depth Not available.
7:37 AM 8:05 PM
Waning Crescent, 7% visible
METAR KMOT 251554Z 14012KT 10SM OVC100 02/M01 A2992 RMK AO2 SLP151 T00221006

Get Your Daily Forecast Email!

Thanks for signing up!

Be on the lookout for a verification email in your inbox.

You'll start receiving severe weather alerts in your inbox..

×

10-Day Weather Forecast

Almanac

Astronomy

Mar. 25, 2017 Rise Set
Actual Time
Civil Twilight
Nautical Twilight
Astronomical Twilight
Moon
Length of Visible Light
Length of Day
Tomorrow will be .
, % of the Moon is Illuminated

Today's Extremes

State Highs State Lows

Community

WunderPhotos

Upload Photos

1,962,540 photos uploaded!

WunderBlog® & News

Nearby

Air Quality

  Air Quality AQ Index Pollutant
Not available.

Snow Depth

Station Depth Elevation

Earthquake Activity

City Distance Mag. Time & Date
Minimum magnitude displayed is 2.5.

Earthquake Activity

City Distance Mag. Time & Date
Minimum magnitude displayed is 2.5.

Coastal Water Temperatures

Place Temperature

Stations

Nearby Weather Stations

Station Location Temp. Windchill Dew Point Humidity Wind Precip. Elev Updated Type
                   

Watches & Warnings

Flood Warning
Issued: 1:39 PM CDT Mar. 24, 2017 – National Weather Service

The Flood Warning continues for
the Souris river near Foxholm.
* Until further notice.
* At 1:15 PM Friday the stage was 1573 feet.
* Flood stage is 1573 feet.
* Minor flooding is occurring and minor flooding is forecast.
* Forecast... the river will continue rising to near 1574 feet by
early Tuesday morning. Additional rises may be possible thereafter.
* Impact... at 1575 feet... rural flooding begins.


             Fld observed forecasts (7pm)
location stg stg day/time Sat sun Mon Tue Wed

Souris river basin
Foxholm 1573 1573.1 Fri 1 PM 1573.1 1573.3 1573.4 1573.5 1573.7


Lat... Lon 4845 10159 4845 10155 4843 10151 4828 10140
      4827 10142 4837 10152